sensor_id;sensor_type;location;lat;lon;timestamp;pressure;altitude;pressure_sealevel;temperature;humidity
19005;BME280;9635;52.078;8.648;2023-04-28T00:03:10;100385.09;;;8.80;45.16
19005;BME280;9635;52.078;8.648;2023-04-28T00:08:13;100370.72;;;8.81;45.19
19005;BME280;9635;52.078;8.648;2023-04-28T00:13:16;100369.84;;;8.81;45.06
19005;BME280;9635;52.078;8.648;2023-04-28T00:18:21;100362.16;;;8.76;45.21
19005;BME280;9635;52.078;8.648;2023-04-28T00:23:24;100351.97;;;8.81;45.28
19005;BME280;9635;52.078;8.648;2023-04-28T00:28:26;100339.88;;;8.76;45.59
19005;BME280;9635;52.078;8.648;2023-04-28T00:33:34;100331.22;;;8.72;45.74
19005;BME280;9635;52.078;8.648;2023-04-28T00:38:37;100319.31;;;8.76;45.99
19005;BME280;9635;52.078;8.648;2023-04-28T00:43:44;100325.22;;;8.69;45.94
19005;BME280;9635;52.078;8.648;2023-04-28T00:48:48;100326.50;;;8.76;45.94
19005;BME280;9635;52.078;8.648;2023-04-28T00:53:51;100308.34;;;8.79;46.12
19005;BME280;9635;52.078;8.648;2023-04-28T00:58:54;100298.63;;;8.78;46.20
19005;BME280;9635;52.078;8.648;2023-04-28T01:03:59;100300.03;;;8.71;46.22
19005;BME280;9635;52.078;8.648;2023-04-28T01:09:03;100306.25;;;8.72;46.53
19005;BME280;9635;52.078;8.648;2023-04-28T01:14:07;100302.66;;;8.84;46.40
19005;BME280;9635;52.078;8.648;2023-04-28T01:19:19;100290.22;;;8.83;46.54
19005;BME280;9635;52.078;8.648;2023-04-28T01:24:25;100287.78;;;8.80;46.78
19005;BME280;9635;52.078;8.648;2023-04-28T01:29:31;100281.81;;;8.76;46.92
19005;BME280;9635;52.078;8.648;2023-04-28T01:34:34;100268.78;;;8.83;47.16
19005;BME280;9635;52.078;8.648;2023-04-28T01:39:41;100260.63;;;8.73;47.12
19005;BME280;9635;52.078;8.648;2023-04-28T01:44:43;100251.84;;;8.71;47.49
19005;BME280;9635;52.078;8.648;2023-04-28T01:49:46;100247.31;;;8.72;47.71
19005;BME280;9635;52.078;8.648;2023-04-28T01:54:52;100254.00;;;8.66;47.69
19005;BME280;9635;52.078;8.648;2023-04-28T01:59:55;100236.50;;;8.73;47.88
19005;BME280;9635;52.078;8.648;2023-04-28T02:05:02;100231.91;;;8.75;47.94
19005;BME280;9635;52.078;8.648;2023-04-28T02:10:07;100228.72;;;8.70;48.29
19005;BME280;9635;52.078;8.648;2023-04-28T02:15:10;100228.81;;;8.69;48.19
19005;BME280;9635;52.078;8.648;2023-04-28T02:20:13;100222.84;;;8.65;48.39
19005;BME280;9635;52.078;8.648;2023-04-28T02:25:18;100217.88;;;8.72;48.50
19005;BME280;9635;52.078;8.648;2023-04-28T02:30:21;100204.25;;;8.75;48.67
19005;BME280;9635;52.078;8.648;2023-04-28T02:35:24;100201.81;;;8.72;48.72
19005;BME280;9635;52.078;8.648;2023-04-28T02:40:28;100203.63;;;8.71;49.03
19005;BME280;9635;52.078;8.648;2023-04-28T02:45:31;100196.22;;;8.75;49.16
19005;BME280;9635;52.078;8.648;2023-04-28T02:50:34;100184.53;;;8.76;49.10
19005;BME280;9635;52.078;8.648;2023-04-28T02:55:38;100186.63;;;8.72;49.13
19005;BME280;9635;52.078;8.648;2023-04-28T03:00:41;100184.03;;;8.71;49.32
19005;BME280;9635;52.078;8.648;2023-04-28T03:05:44;100173.22;;;8.72;49.65
19005;BME280;9635;52.078;8.648;2023-04-28T03:10:48;100171.22;;;8.63;49.68
19005;BME280;9635;52.078;8.648;2023-04-28T03:15:51;100166.50;;;8.67;49.94
19005;BME280;9635;52.078;8.648;2023-04-28T03:20:54;100153.00;;;8.68;50.25
19005;BME280;9635;52.078;8.648;2023-04-28T03:26:01;100160.69;;;8.73;50.19
19005;BME280;9635;52.078;8.648;2023-04-28T03:31:04;100160.53;;;8.74;50.45
19005;BME280;9635;52.078;8.648;2023-04-28T03:36:08;100154.34;;;8.74;50.30
19005;BME280;9635;52.078;8.648;2023-04-28T03:41:12;100155.19;;;8.74;50.40
19005;BME280;9635;52.078;8.648;2023-04-28T03:46:41;100146.31;;;8.74;50.26
19005;BME280;9635;52.078;8.648;2023-04-28T03:51:44;100133.16;;;8.71;50.72
19005;BME280;9635;52.078;8.648;2023-04-28T03:56:49;100139.50;;;8.70;50.73
19005;BME280;9635;52.078;8.648;2023-04-28T04:01:52;100137.44;;;8.73;51.05
19005;BME280;9635;52.078;8.648;2023-04-28T04:06:55;100135.72;;;8.72;51.32
19005;BME280;9635;52.078;8.648;2023-04-28T04:12:00;100140.34;;;8.70;51.15
19005;BME280;9635;52.078;8.648;2023-04-28T04:17:03;100129.50;;;8.72;51.07
19005;BME280;9635;52.078;8.648;2023-04-28T04:22:05;100125.13;;;8.71;50.71
19005;BME280;9635;52.078;8.648;2023-04-28T04:27:10;100121.56;;;8.59;50.92
19005;BME280;9635;52.078;8.648;2023-04-28T04:32:15;100119.41;;;8.64;51.08
19005;BME280;9635;52.078;8.648;2023-04-28T04:37:18;100110.03;;;8.70;50.81
19005;BME280;9635;52.078;8.648;2023-04-28T04:42:35;100111.38;;;8.75;50.88
19005;BME280;9635;52.078;8.648;2023-04-28T04:47:52;100107.22;;;8.71;51.10
19005;BME280;9635;52.078;8.648;2023-04-28T04:52:55;100102.72;;;8.72;51.11
19005;BME280;9635;52.078;8.648;2023-04-28T04:58:00;100103.34;;;8.75;51.20
19005;BME280;9635;52.078;8.648;2023-04-28T05:03:22;100098.94;;;8.74;51.30
19005;BME280;9635;52.078;8.648;2023-04-28T05:08:26;100092.41;;;8.90;51.45
19005;BME280;9635;52.078;8.648;2023-04-28T05:13:32;100082.78;;;8.87;51.25
19005;BME280;9635;52.078;8.648;2023-04-28T05:18:37;100075.25;;;9.03;51.11
19005;BME280;9635;52.078;8.648;2023-04-28T05:23:40;100077.06;;;9.03;51.38
19005;BME280;9635;52.078;8.648;2023-04-28T05:28:44;100082.28;;;9.04;51.12
19005;BME280;9635;52.078;8.648;2023-04-28T05:33:48;100081.19;;;9.18;50.81
19005;BME280;9635;52.078;8.648;2023-04-28T05:38:51;100071.94;;;9.34;50.72
19005;BME280;9635;52.078;8.648;2023-04-28T05:43:55;100074.47;;;9.24;51.13
19005;BME280;9635;52.078;8.648;2023-04-28T05:48:58;100070.69;;;9.38;50.92
19005;BME280;9635;52.078;8.648;2023-04-28T05:54:06;100076.44;;;9.33;51.05
19005;BME280;9635;52.078;8.648;2023-04-28T05:59:17;100056.91;;;9.42;51.14
19005;BME280;9635;52.078;8.648;2023-04-28T06:04:20;100062.03;;;9.45;50.85
19005;BME280;9635;52.078;8.648;2023-04-28T06:09:24;100063.72;;;9.58;50.91
19005;BME280;9635;52.078;8.648;2023-04-28T06:14:28;100056.59;;;9.79;50.44
19005;BME280;9635;52.078;8.648;2023-04-28T06:19:31;100052.06;;;9.91;50.41
19005;BME280;9635;52.078;8.648;2023-04-28T06:24:34;100047.59;;;9.69;51.95
19005;BME280;9635;52.078;8.648;2023-04-28T06:29:41;100058.28;;;9.80;53.36
19005;BME280;9635;52.078;8.648;2023-04-28T06:34:44;100055.00;;;10.09;52.78
19005;BME280;9635;52.078;8.648;2023-04-28T06:39:46;100051.78;;;10.26;52.92
19005;BME280;9635;52.078;8.648;2023-04-28T06:44:51;100051.31;;;10.21;51.59
19005;BME280;9635;52.078;8.648;2023-04-28T06:49:54;100051.91;;;10.25;50.85
19005;BME280;9635;52.078;8.648;2023-04-28T06:54:57;100040.03;;;10.27;50.92
19005;BME280;9635;52.078;8.648;2023-04-28T07:00:01;100034.06;;;10.45;51.23
19005;BME280;9635;52.078;8.648;2023-04-28T07:05:05;100045.06;;;10.42;50.87
19005;BME280;9635;52.078;8.648;2023-04-28T07:10:09;100037.63;;;10.24;51.47
19005;BME280;9635;52.078;8.648;2023-04-28T07:15:13;100026.03;;;10.03;52.11
19005;BME280;9635;52.078;8.648;2023-04-28T07:20:16;100026.50;;;10.29;52.02
19005;BME280;9635;52.078;8.648;2023-04-28T07:25:19;100018.22;;;10.42;52.26
19005;BME280;9635;52.078;8.648;2023-04-28T07:30:25;100009.50;;;10.49;51.97
19005;BME280;9635;52.078;8.648;2023-04-28T07:35:29;100014.69;;;10.62;51.85
19005;BME280;9635;52.078;8.648;2023-04-28T07:40:32;100022.06;;;10.70;51.29
19005;BME280;9635;52.078;8.648;2023-04-28T07:45:37;100017.94;;;10.96;51.50
19005;BME280;9635;52.078;8.648;2023-04-28T07:50:40;100008.38;;;11.13;51.21
19005;BME280;9635;52.078;8.648;2023-04-28T07:55:43;100005.06;;;11.40;52.07
19005;BME280;9635;52.078;8.648;2023-04-28T08:00:48;100005.25;;;11.08;51.92
19005;BME280;9635;52.078;8.648;2023-04-28T08:05:51;99999.00;;;11.48;52.13
19005;BME280;9635;52.078;8.648;2023-04-28T08:10:54;99984.59;;;11.68;51.23
19005;BME280;9635;52.078;8.648;2023-04-28T08:15:59;99988.78;;;11.52;57.94
19005;BME280;9635;52.078;8.648;2023-04-28T08:21:02;99976.94;;;10.94;58.19
19005;BME280;9635;52.078;8.648;2023-04-28T08:26:05;99979.03;;;10.60;59.25
19005;BME280;9635;52.078;8.648;2023-04-28T08:31:09;99973.97;;;11.07;57.95
19005;BME280;9635;52.078;8.648;2023-04-28T08:36:11;99969.13;;;11.51;55.58
19005;BME280;9635;52.078;8.648;2023-04-28T08:41:15;99979.88;;;11.90;53.93
19005;BME280;9635;52.078;8.648;2023-04-28T08:46:22;99967.69;;;11.95;53.06
19005;BME280;9635;52.078;8.648;2023-04-28T08:51:32;99960.41;;;12.25;53.16
19005;BME280;9635;52.078;8.648;2023-04-28T08:56:35;99975.78;;;12.15;52.99
19005;BME280;9635;52.078;8.648;2023-04-28T09:01:39;99978.03;;;12.29;52.92
19005;BME280;9635;52.078;8.648;2023-04-28T09:06:42;99980.56;;;12.21;53.23
19005;BME280;9635;52.078;8.648;2023-04-28T09:11:53;99979.22;;;12.54;53.37
19005;BME280;9635;52.078;8.648;2023-04-28T09:16:58;99981.75;;;12.66;53.52
19005;BME280;9635;52.078;8.648;2023-04-28T09:22:01;99982.84;;;12.73;52.79
19005;BME280;9635;52.078;8.648;2023-04-28T09:27:26;99989.72;;;12.57;53.61
19005;BME280;9635;52.078;8.648;2023-04-28T09:32:30;99987.59;;;12.51;54.35
19005;BME280;9635;52.078;8.648;2023-04-28T09:37:34;99974.31;;;12.40;55.19
19005;BME280;9635;52.078;8.648;2023-04-28T09:42:39;99955.88;;;12.45;55.77
19005;BME280;9635;52.078;8.648;2023-04-28T09:47:45;99935.53;;;12.60;56.37
19005;BME280;9635;52.078;8.648;2023-04-28T09:52:55;99932.41;;;12.65;59.62
19005;BME280;9635;52.078;8.648;2023-04-28T09:58:04;99944.88;;;12.29;66.20
19005;BME280;9635;52.078;8.648;2023-04-28T10:03:10;99957.63;;;12.07;73.30
19005;BME280;9635;52.078;8.648;2023-04-28T10:08:14;99960.28;;;12.17;71.00
19005;BME280;9635;52.078;8.648;2023-04-28T10:13:19;99947.63;;;12.47;71.56
19005;BME280;9635;52.078;8.648;2023-04-28T10:18:24;99941.19;;;12.67;70.39
19005;BME280;9635;52.078;8.648;2023-04-28T10:23:45;99945.53;;;12.41;69.16
19005;BME280;9635;52.078;8.648;2023-04-28T10:28:50;99944.00;;;12.28;69.48
19005;BME280;9635;52.078;8.648;2023-04-28T10:33:54;99940.44;;;12.37;70.31
19005;BME280;9635;52.078;8.648;2023-04-28T10:39:07;99928.34;;;12.79;70.88
19005;BME280;9635;52.078;8.648;2023-04-28T10:44:41;99918.66;;;13.32;67.39
19005;BME280;9635;52.078;8.648;2023-04-28T10:55:31;99922.84;;;13.80;62.74
19005;BME280;9635;52.078;8.648;2023-04-28T11:00:38;99915.75;;;14.05;63.24
19005;BME280;9635;52.078;8.648;2023-04-28T11:06:16;99919.72;;;13.92;62.80
19005;BME280;9635;52.078;8.648;2023-04-28T11:11:22;99913.06;;;13.61;62.36
19005;BME280;9635;52.078;8.648;2023-04-28T11:16:26;99902.94;;;13.63;62.95
19005;BME280;9635;52.078;8.648;2023-04-28T11:21:30;99884.34;;;13.78;62.10
19005;BME280;9635;52.078;8.648;2023-04-28T11:26:36;99883.06;;;14.42;60.37
19005;BME280;9635;52.078;8.648;2023-04-28T11:31:39;99880.44;;;14.58;58.61
19005;BME280;9635;52.078;8.648;2023-04-28T11:36:42;99875.28;;;14.73;59.31
19005;BME280;9635;52.078;8.648;2023-04-28T11:41:47;99880.34;;;14.76;58.30
19005;BME280;9635;52.078;8.648;2023-04-28T11:46:51;99872.53;;;15.32;57.32
19005;BME280;9635;52.078;8.648;2023-04-28T11:51:57;99872.50;;;15.08;56.73
19005;BME280;9635;52.078;8.648;2023-04-28T11:57:02;99855.59;;;15.22;56.87
19005;BME280;9635;52.078;8.648;2023-04-28T12:02:06;99854.66;;;15.47;55.57
19005;BME280;9635;52.078;8.648;2023-04-28T12:07:10;99857.31;;;15.31;56.13
19005;BME280;9635;52.078;8.648;2023-04-28T12:12:27;99866.66;;;15.45;56.76
19005;BME280;9635;52.078;8.648;2023-04-28T12:17:50;99862.25;;;15.44;57.21
19005;BME280;9635;52.078;8.648;2023-04-28T12:22:53;99855.84;;;15.45;56.89
19005;BME280;9635;52.078;8.648;2023-04-28T12:28:00;99839.94;;;15.58;56.18
19005;BME280;9635;52.078;8.648;2023-04-28T12:33:03;99838.19;;;15.90;56.16
19005;BME280;9635;52.078;8.648;2023-04-28T12:38:10;99817.94;;;16.25;54.84
19005;BME280;9635;52.078;8.648;2023-04-28T12:43:15;99830.03;;;16.06;54.63
19005;BME280;9635;52.078;8.648;2023-04-28T12:48:18;99837.09;;;16.24;54.90
19005;BME280;9635;52.078;8.648;2023-04-28T12:53:21;99840.38;;;15.95;55.00
19005;BME280;9635;52.078;8.648;2023-04-28T12:58:26;99837.22;;;15.50;56.11
19005;BME280;9635;52.078;8.648;2023-04-28T13:03:29;99842.97;;;15.47;56.77
19005;BME280;9635;52.078;8.648;2023-04-28T13:08:32;99834.84;;;15.63;55.49
19005;BME280;9635;52.078;8.648;2023-04-28T13:13:37;99825.84;;;16.51;54.50
19005;BME280;9635;52.078;8.648;2023-04-28T13:18:40;99824.63;;;17.16;52.69
19005;BME280;9635;52.078;8.648;2023-04-28T13:23:42;99813.75;;;17.16;53.25
19005;BME280;9635;52.078;8.648;2023-04-28T13:28:47;99825.00;;;16.82;53.27
19005;BME280;9635;52.078;8.648;2023-04-28T13:33:50;99811.53;;;16.89;53.39
19005;BME280;9635;52.078;8.648;2023-04-28T13:38:53;99802.00;;;16.70;53.95
19005;BME280;9635;52.078;8.648;2023-04-28T13:43:57;99798.72;;;16.51;54.96
19005;BME280;9635;52.078;8.648;2023-04-28T13:49:00;99794.97;;;16.52;55.29
19005;BME280;9635;52.078;8.648;2023-04-28T13:54:02;99779.66;;;16.91;54.21
19005;BME280;9635;52.078;8.648;2023-04-28T13:59:10;99781.47;;;16.75;54.89
19005;BME280;9635;52.078;8.648;2023-04-28T14:04:12;99786.47;;;16.24;55.27
19005;BME280;9635;52.078;8.648;2023-04-28T14:09:15;99783.38;;;15.88;56.85
19005;BME280;9635;52.078;8.648;2023-04-28T14:14:20;99778.69;;;15.41;61.71
19005;BME280;9635;52.078;8.648;2023-04-28T14:19:23;99773.78;;;15.12;62.26
19005;BME280;9635;52.078;8.648;2023-04-28T14:24:27;99780.00;;;14.88;62.57
19005;BME280;9635;52.078;8.648;2023-04-28T14:29:31;99777.81;;;14.99;61.81
19005;BME280;9635;52.078;8.648;2023-04-28T14:34:34;99768.03;;;15.07;62.35
19005;BME280;9635;52.078;8.648;2023-04-28T14:39:37;99759.72;;;15.24;63.20
19005;BME280;9635;52.078;8.648;2023-04-28T14:44:42;99766.66;;;15.27;61.53
19005;BME280;9635;52.078;8.648;2023-04-28T14:49:46;99767.84;;;15.08;61.98
19005;BME280;9635;52.078;8.648;2023-04-28T14:54:49;99763.94;;;15.02;62.62
19005;BME280;9635;52.078;8.648;2023-04-28T14:59:53;99760.75;;;14.99;62.97
19005;BME280;9635;52.078;8.648;2023-04-28T15:04:56;99745.88;;;15.19;63.00
19005;BME280;9635;52.078;8.648;2023-04-28T15:09:59;99741.97;;;15.14;62.70
19005;BME280;9635;52.078;8.648;2023-04-28T15:15:04;99739.63;;;15.11;63.50
19005;BME280;9635;52.078;8.648;2023-04-28T15:20:07;99746.38;;;14.74;65.24
19005;BME280;9635;52.078;8.648;2023-04-28T15:25:10;99740.13;;;14.73;65.90
19005;BME280;9635;52.078;8.648;2023-04-28T15:30:14;99741.78;;;14.66;67.41
19005;BME280;9635;52.078;8.648;2023-04-28T15:35:17;99752.16;;;14.36;70.24
19005;BME280;9635;52.078;8.648;2023-04-28T15:40:20;99756.16;;;14.16;71.59
19005;BME280;9635;52.078;8.648;2023-04-28T15:45:24;99735.06;;;14.95;72.40
19005;BME280;9635;52.078;8.648;2023-04-28T15:50:27;99736.06;;;15.18;70.42
19005;BME280;9635;52.078;8.648;2023-04-28T15:55:30;99730.31;;;15.13;70.98
19005;BME280;9635;52.078;8.648;2023-04-28T16:00:34;99738.97;;;15.50;69.94
19005;BME280;9635;52.078;8.648;2023-04-28T16:05:38;99742.66;;;15.32;69.50
19005;BME280;9635;52.078;8.648;2023-04-28T16:10:41;99733.72;;;15.40;70.15
19005;BME280;9635;52.078;8.648;2023-04-28T16:15:45;99739.78;;;15.34;69.95
19005;BME280;9635;52.078;8.648;2023-04-28T16:20:51;99747.22;;;15.15;71.15
19005;BME280;9635;52.078;8.648;2023-04-28T16:25:54;99743.66;;;14.66;72.74
19005;BME280;9635;52.078;8.648;2023-04-28T16:30:58;99741.47;;;14.77;73.13
19005;BME280;9635;52.078;8.648;2023-04-28T16:36:01;99732.66;;;14.75;72.50
19005;BME280;9635;52.078;8.648;2023-04-28T16:41:04;99730.50;;;14.87;72.71
19005;BME280;9635;52.078;8.648;2023-04-28T16:46:08;99731.50;;;14.86;72.84
19005;BME280;9635;52.078;8.648;2023-04-28T16:51:11;99726.09;;;14.78;73.60
19005;BME280;9635;52.078;8.648;2023-04-28T16:56:14;99733.53;;;14.76;73.55
19005;BME280;9635;52.078;8.648;2023-04-28T17:01:19;99730.16;;;14.74;75.24
19005;BME280;9635;52.078;8.648;2023-04-28T17:06:22;99717.31;;;14.76;75.18
19005;BME280;9635;52.078;8.648;2023-04-28T17:11:25;99710.53;;;14.80;74.38
19005;BME280;9635;52.078;8.648;2023-04-28T17:16:31;99707.84;;;14.80;73.73
19005;BME280;9635;52.078;8.648;2023-04-28T17:21:34;99709.31;;;14.50;73.75
19005;BME280;9635;52.078;8.648;2023-04-28T17:26:36;99707.28;;;14.44;74.13
19005;BME280;9635;52.078;8.648;2023-04-28T17:31:41;99725.53;;;14.50;73.87
19005;BME280;9635;52.078;8.648;2023-04-28T17:36:43;99734.63;;;13.38;81.91
19005;BME280;9635;52.078;8.648;2023-04-28T17:41:46;99743.53;;;12.58;87.44
19005;BME280;9635;52.078;8.648;2023-04-28T17:46:51;99761.72;;;12.56;88.94
19005;BME280;9635;52.078;8.648;2023-04-28T17:51:53;99762.88;;;12.90;88.08
19005;BME280;9635;52.078;8.648;2023-04-28T17:56:56;99755.47;;;12.56;88.12
19005;BME280;9635;52.078;8.648;2023-04-28T18:02:00;99755.78;;;12.89;85.30
19005;BME280;9635;52.078;8.648;2023-04-28T18:07:04;99758.19;;;12.74;85.78
19005;BME280;9635;52.078;8.648;2023-04-28T18:12:08;99765.88;;;12.87;84.53
19005;BME280;9635;52.078;8.648;2023-04-28T18:17:12;99772.56;;;12.82;83.79
19005;BME280;9635;52.078;8.648;2023-04-28T18:22:15;99780.03;;;12.71;83.97
19005;BME280;9635;52.078;8.648;2023-04-28T18:27:18;99788.34;;;12.59;83.83
19005;BME280;9635;52.078;8.648;2023-04-28T18:32:22;99781.94;;;12.43;84.64
19005;BME280;9635;52.078;8.648;2023-04-28T18:37:25;99786.19;;;12.45;84.35
19005;BME280;9635;52.078;8.648;2023-04-28T18:42:28;99791.56;;;12.63;83.27
19005;BME280;9635;52.078;8.648;2023-04-28T18:47:34;99793.91;;;12.30;84.32
19005;BME280;9635;52.078;8.648;2023-04-28T18:52:37;99806.06;;;12.62;83.14
19005;BME280;9635;52.078;8.648;2023-04-28T18:57:40;99791.41;;;12.47;83.87
19005;BME280;9635;52.078;8.648;2023-04-28T19:02:45;99809.09;;;12.49;83.87
19005;BME280;9635;52.078;8.648;2023-04-28T19:07:48;99813.06;;;12.17;84.89
19005;BME280;9635;52.078;8.648;2023-04-28T19:12:50;99813.78;;;12.47;83.68
19005;BME280;9635;52.078;8.648;2023-04-28T19:17:55;99823.69;;;12.29;84.28
19005;BME280;9635;52.078;8.648;2023-04-28T19:22:58;99831.47;;;12.32;84.36
19005;BME280;9635;52.078;8.648;2023-04-28T19:28:02;99830.22;;;12.54;82.75
19005;BME280;9635;52.078;8.648;2023-04-28T19:33:06;99837.53;;;12.34;83.16
19005;BME280;9635;52.078;8.648;2023-04-28T19:38:09;99827.63;;;12.34;83.51
19005;BME280;9635;52.078;8.648;2023-04-28T19:43:12;99839.41;;;12.79;81.68
19005;BME280;9635;52.078;8.648;2023-04-28T19:48:17;99837.09;;;12.38;83.54
19005;BME280;9635;52.078;8.648;2023-04-28T19:53:21;99835.03;;;12.50;82.91
19005;BME280;9635;52.078;8.648;2023-04-28T19:58:24;99848.25;;;12.06;85.69
19005;BME280;9635;52.078;8.648;2023-04-28T20:03:28;99849.78;;;12.19;86.03
19005;BME280;9635;52.078;8.648;2023-04-28T20:08:31;99850.69;;;12.00;86.20
19005;BME280;9635;52.078;8.648;2023-04-28T20:13:34;99849.66;;;12.10;87.09
19005;BME280;9635;52.078;8.648;2023-04-28T20:18:38;99845.06;;;11.93;88.39
19005;BME280;9635;52.078;8.648;2023-04-28T20:23:41;99847.63;;;12.22;86.60
19005;BME280;9635;52.078;8.648;2023-04-28T20:28:45;99852.16;;;12.22;85.82
19005;BME280;9635;52.078;8.648;2023-04-28T20:33:50;99854.25;;;12.37;85.13
19005;BME280;9635;52.078;8.648;2023-04-28T20:38:53;99857.31;;;12.05;87.33
19005;BME280;9635;52.078;8.648;2023-04-28T20:43:55;99854.97;;;11.83;89.00
19005;BME280;9635;52.078;8.648;2023-04-28T20:49:00;99857.56;;;11.75;90.59
19005;BME280;9635;52.078;8.648;2023-04-28T20:54:03;99850.88;;;11.88;90.59
19005;BME280;9635;52.078;8.648;2023-04-28T20:59:05;99849.81;;;11.52;91.99
19005;BME280;9635;52.078;8.648;2023-04-28T21:04:10;99854.28;;;11.71;91.76
19005;BME280;9635;52.078;8.648;2023-04-28T21:09:13;99856.31;;;11.40;93.42
19005;BME280;9635;52.078;8.648;2023-04-28T21:14:16;99853.91;;;11.37;93.13
19005;BME280;9635;52.078;8.648;2023-04-28T21:19:20;99851.06;;;11.58;91.57
19005;BME280;9635;52.078;8.648;2023-04-28T21:24:23;99845.97;;;11.45;92.11
19005;BME280;9635;52.078;8.648;2023-04-28T21:29:25;99856.59;;;11.56;91.88
19005;BME280;9635;52.078;8.648;2023-04-28T21:34:30;99867.34;;;11.66;89.86
19005;BME280;9635;52.078;8.648;2023-04-28T21:39:33;99862.94;;;11.65;89.23
19005;BME280;9635;52.078;8.648;2023-04-28T21:44:37;99865.50;;;11.18;90.34
19005;BME280;9635;52.078;8.648;2023-04-28T21:49:41;99866.34;;;11.57;87.99
19005;BME280;9635;52.078;8.648;2023-04-28T21:54:44;99861.53;;;11.61;88.29
19005;BME280;9635;52.078;8.648;2023-04-28T21:59:47;99864.06;;;11.62;86.92
19005;BME280;9635;52.078;8.648;2023-04-28T22:04:52;99862.38;;;11.61;85.46
19005;BME280;9635;52.078;8.648;2023-04-28T22:09:55;99880.22;;;11.53;84.96
19005;BME280;9635;52.078;8.648;2023-04-28T22:14:59;99864.34;;;11.59;84.06
19005;BME280;9635;52.078;8.648;2023-04-28T22:20:04;99873.69;;;11.75;83.58
19005;BME280;9635;52.078;8.648;2023-04-28T22:25:07;99871.72;;;11.67;82.95
19005;BME280;9635;52.078;8.648;2023-04-28T22:30:11;99888.13;;;11.93;81.76
19005;BME280;9635;52.078;8.648;2023-04-28T22:35:15;99889.28;;;11.52;83.13
19005;BME280;9635;52.078;8.648;2023-04-28T22:40:18;99887.56;;;11.70;81.29
19005;BME280;9635;52.078;8.648;2023-04-28T22:45:22;99897.63;;;11.48;80.19
19005;BME280;9635;52.078;8.648;2023-04-28T22:50:26;99894.38;;;11.35;80.61
19005;BME280;9635;52.078;8.648;2023-04-28T22:55:29;99902.88;;;11.31;79.64
19005;BME280;9635;52.078;8.648;2023-04-28T23:00:32;99900.47;;;11.66;78.52
19005;BME280;9635;52.078;8.648;2023-04-28T23:05:37;99902.31;;;11.56;78.96
19005;BME280;9635;52.078;8.648;2023-04-28T23:10:40;99906.97;;;11.35;79.43
19005;BME280;9635;52.078;8.648;2023-04-28T23:15:43;99900.91;;;11.42;79.73
19005;BME280;9635;52.078;8.648;2023-04-28T23:20:48;99896.53;;;11.41;80.15
19005;BME280;9635;52.078;8.648;2023-04-28T23:25:51;99909.41;;;11.47;79.82
19005;BME280;9635;52.078;8.648;2023-04-28T23:30:54;99908.09;;;11.13;80.95
19005;BME280;9635;52.078;8.648;2023-04-28T23:35:58;99906.53;;;11.88;78.57
19005;BME280;9635;52.078;8.648;2023-04-28T23:41:01;99916.00;;;12.02;77.99
19005;BME280;9635;52.078;8.648;2023-04-28T23:46:05;99921.28;;;11.74;77.52
19005;BME280;9635;52.078;8.648;2023-04-28T23:51:09;99924.38;;;11.69;78.00
19005;BME280;9635;52.078;8.648;2023-04-28T23:56:12;99927.78;;;11.62;78.69
